createdAt,value
2016-11-01T00:02:33.003Z,933.35
2016-11-01T00:03:43.416Z,933.34
2016-11-01T00:04:53.842Z,933.4
2016-11-01T00:06:04.259Z,933.46
2016-11-01T00:07:14.774Z,933.49
2016-11-01T00:08:25.243Z,933.53
2016-11-01T00:09:35.656Z,933.64
2016-11-01T00:10:46.073Z,933.66
2016-11-01T00:11:56.522Z,933.68
2016-11-01T00:13:07.078Z,933.79
2016-11-01T00:14:17.504Z,933.81
2016-11-01T00:15:27.921Z,933.86
2016-11-01T00:16:52.890Z,933.88
2016-11-01T00:18:03.304Z,933.89
2016-11-01T00:19:13.721Z,933.91
2016-11-01T00:20:24.147Z,933.92
2016-11-01T00:21:34.564Z,933.99
2016-11-01T00:22:44.979Z,934
2016-11-01T00:23:55.396Z,934.05
2016-11-01T00:25:05.811Z,934.07
2016-11-01T00:26:16.229Z,934.07
2016-11-01T00:27:26.646Z,934.09
2016-11-01T00:28:37.062Z,934.13
2016-11-01T00:29:47.588Z,934.14
2016-11-01T00:30:58.488Z,934.14
2016-11-01T00:32:08.900Z,934.12
2016-11-01T00:33:19.316Z,934.14
2016-11-01T00:34:29.735Z,934.13
2016-11-01T00:35:40.158Z,934.1
2016-11-01T00:36:50.574Z,934.08
2016-11-01T00:38:01.025Z,934.12
2016-11-01T00:39:11.960Z,934.12
2016-11-01T00:40:22.375Z,934.17
2016-11-01T00:41:32.791Z,934.18
2016-11-01T00:42:43.213Z,934.21
2016-11-01T00:43:53.660Z,934.28
2016-11-01T00:45:04.076Z,934.34
2016-11-01T00:46:14.523Z,934.33
2016-11-01T00:47:24.947Z,934.34
2016-11-01T00:48:35.375Z,934.32
2016-11-01T00:49:45.797Z,934.32
2016-11-01T00:50:56.214Z,934.31
2016-11-01T00:52:07.123Z,934.29
2016-11-01T00:53:18.544Z,934.35
2016-11-01T00:54:28.955Z,934.31
2016-11-01T00:55:39.409Z,934.28
2016-11-01T00:56:49.824Z,934.27
2016-11-01T00:58:00.242Z,934.31
2016-11-01T00:59:10.757Z,934.29
2016-11-01T01:00:21.178Z,934.2
2016-11-01T01:01:31.593Z,934.2
2016-11-01T01:02:56.560Z,934.16
2016-11-01T01:04:07.465Z,934.18
2016-11-01T01:05:17.979Z,934.13
2016-11-01T01:06:28.416Z,934.1
2016-11-01T01:07:53.305Z,934.06
2016-11-01T01:09:03.637Z,934.06
2016-11-01T01:10:13.967Z,934.05
2016-11-01T01:11:24.294Z,934.1
2016-11-01T01:12:34.619Z,934.05
2016-11-01T01:13:44.943Z,934.01
2016-11-01T01:14:55.367Z,934.01
2016-11-01T01:16:05.691Z,933.97
2016-11-01T01:17:16.017Z,933.92
2016-11-01T01:18:26.341Z,933.91
2016-11-01T01:19:36.707Z,933.93
2016-11-01T01:20:47.132Z,933.91
2016-11-01T01:21:57.458Z,933.89
2016-11-01T01:23:07.782Z,933.83
2016-11-01T01:24:18.107Z,933.8
2016-11-01T01:25:28.439Z,933.8
2016-11-01T01:26:38.804Z,933.83
2016-11-01T01:27:49.134Z,933.82
2016-11-01T01:28:59.456Z,933.87
2016-11-01T01:30:09.779Z,933.85
2016-11-01T01:31:20.110Z,933.85
2016-11-01T01:32:30.440Z,933.84
2016-11-01T01:33:55.343Z,933.86
2016-11-01T01:35:06.144Z,933.85
2016-11-01T01:36:16.469Z,933.83
2016-11-01T01:37:26.792Z,933.79
2016-11-01T01:38:37.219Z,933.83
2016-11-01T01:39:47.543Z,933.79
2016-11-01T01:40:57.865Z,933.78
2016-11-01T01:42:08.188Z,933.83
2016-11-01T01:43:18.616Z,933.81
2016-11-01T01:44:28.944Z,933.83
2016-11-01T01:45:39.269Z,933.8
2016-11-01T01:46:49.595Z,933.84
2016-11-01T01:47:59.925Z,933.84
2016-11-01T01:49:10.246Z,933.84
2016-11-01T01:50:20.567Z,933.89
2016-11-01T01:51:45.460Z,933.89
2016-11-01T01:52:55.790Z,933.9
2016-11-01T01:54:06.119Z,933.91
2016-11-01T01:55:16.441Z,933.93
2016-11-01T01:56:26.765Z,933.94
2016-11-01T01:57:37.093Z,933.92
2016-11-01T01:58:47.421Z,933.92
2016-11-01T01:59:57.850Z,933.93
2016-11-01T02:01:08.209Z,933.88
2016-11-01T02:02:18.657Z,933.92
2016-11-01T02:03:29.097Z,933.91
2016-11-01T02:04:40.038Z,933.94
2016-11-01T02:05:50.577Z,933.91
2016-11-01T02:07:01.020Z,933.9
2016-11-01T02:08:11.466Z,933.92
2016-11-01T02:09:36.451Z,933.9
2016-11-01T02:10:46.898Z,933.9
2016-11-01T02:11:57.338Z,933.91
2016-11-01T02:13:07.783Z,933.85
2016-11-01T02:14:18.225Z,933.83
2016-11-01T02:15:28.671Z,933.83
2016-11-01T02:16:39.220Z,933.8
2016-11-01T02:17:49.660Z,933.81
2016-11-01T02:19:00.104Z,933.81
2016-11-01T02:20:10.546Z,933.79
2016-11-01T02:21:21.020Z,933.81
2016-11-01T02:22:32.053Z,933.79
2016-11-01T02:23:42.494Z,933.78
2016-11-01T02:24:52.934Z,933.78
2016-11-01T02:26:03.386Z,933.8
2016-11-01T02:27:13.832Z,933.8
2016-11-01T02:28:24.273Z,933.8
2016-11-01T02:29:34.713Z,933.78
2016-11-01T02:30:45.152Z,933.78
2016-11-01T02:31:55.595Z,933.75
2016-11-01T02:33:06.038Z,933.72
2016-11-01T02:34:16.566Z,933.71
2016-11-01T02:35:26.890Z,933.68
2016-11-01T02:36:37.215Z,933.66
2016-11-01T02:37:47.536Z,933.67
2016-11-01T02:38:57.861Z,933.67
2016-11-01T02:40:08.680Z,933.69
2016-11-01T02:41:19.003Z,933.66
2016-11-01T02:42:29.325Z,933.68
2016-11-01T02:43:39.651Z,933.63
2016-11-01T02:44:50.456Z,933.59
2016-11-01T02:46:00.883Z,933.59
2016-11-01T02:47:11.209Z,933.57
2016-11-01T02:48:21.533Z,933.55
2016-11-01T02:49:46.428Z,933.57
2016-11-01T02:50:56.753Z,933.56
2016-11-01T02:52:07.181Z,933.53
2016-11-01T02:53:17.503Z,933.53
2016-11-01T02:54:27.825Z,933.52
2016-11-01T02:55:38.152Z,933.5
2016-11-01T02:56:48.577Z,933.53
2016-11-01T02:57:58.945Z,933.54
2016-11-01T02:59:09.273Z,933.51
2016-11-01T03:00:19.602Z,933.53
2016-11-01T03:01:30.401Z,933.51
2016-11-01T03:02:40.829Z,933.54
2016-11-01T03:03:51.158Z,933.57
2016-11-01T03:05:01.481Z,933.59
2016-11-01T03:06:11.813Z,933.58
2016-11-01T03:07:22.140Z,933.56
2016-11-01T03:08:32.464Z,933.51
2016-11-01T03:09:42.787Z,933.48
2016-11-01T03:10:53.115Z,933.47
2016-11-01T03:12:03.486Z,933.44
2016-11-01T03:13:13.810Z,933.4
2016-11-01T03:14:24.234Z,933.43
2016-11-01T03:15:34.556Z,933.42
2016-11-01T03:16:44.885Z,933.44
2016-11-01T03:17:55.264Z,933.48
2016-11-01T03:19:05.797Z,933.47
2016-11-01T03:20:16.427Z,933.42
2016-11-01T03:21:26.851Z,933.45
2016-11-01T03:22:37.310Z,933.41
2016-11-01T03:23:47.880Z,933.36
2016-11-01T03:25:12.880Z,933.3
2016-11-01T03:26:23.304Z,933.28
2016-11-01T03:27:48.270Z,933.24
2016-11-01T03:28:58.686Z,933.24
2016-11-01T03:30:09.118Z,933.22
2016-11-01T03:31:19.634Z,933.23
2016-11-01T03:32:30.052Z,933.22
2016-11-01T03:33:40.465Z,933.22
2016-11-01T03:34:50.885Z,933.17
2016-11-01T03:36:01.300Z,933.16
2016-11-01T03:37:11.748Z,933.15
2016-11-01T03:38:22.163Z,933.19
2016-11-01T03:39:32.590Z,933.18
2016-11-01T03:40:43.016Z,933.19
2016-11-01T03:41:53.533Z,933.23
2016-11-01T03:43:03.949Z,933.21
2016-11-01T03:44:14.373Z,933.13
2016-11-01T03:45:24.790Z,933.16
2016-11-01T03:46:35.211Z,933.14
2016-11-01T03:47:45.632Z,933.05
2016-11-01T03:48:56.056Z,933.03
2016-11-01T03:50:06.469Z,933.06
2016-11-01T03:51:16.928Z,933.11
2016-11-01T03:52:27.345Z,933.1
2016-11-01T03:53:37.863Z,933.09
2016-11-01T03:54:48.283Z,933.03
2016-11-01T03:55:59.191Z,932.97
2016-11-01T03:57:24.153Z,932.96
2016-11-01T03:58:34.572Z,932.98
2016-11-01T03:59:44.988Z,932.97
2016-11-01T04:00:55.402Z,933.01
2016-11-01T04:02:05.814Z,933.02
2016-11-01T04:03:16.236Z,933.03
2016-11-01T04:04:26.780Z,933.03
2016-11-01T04:07:02.161Z,933.04
2016-11-01T04:08:13.062Z,932.96
2016-11-01T04:09:23.971Z,932.94
2016-11-01T04:11:59.941Z,932.88
2016-11-01T04:13:10.363Z,932.89
2016-11-01T04:14:20.779Z,932.8
2016-11-01T04:15:31.200Z,932.89
2016-11-01T04:16:41.628Z,932.82
2016-11-01T04:17:52.047Z,932.81
2016-11-01T04:19:02.463Z,932.83
2016-11-01T04:20:12.977Z,932.8
2016-11-01T04:21:23.394Z,932.75
2016-11-01T04:22:33.838Z,932.76
2016-11-01T04:23:44.255Z,932.73
2016-11-01T04:24:54.665Z,932.68
2016-11-01T04:26:05.182Z,932.64
2016-11-01T04:27:15.598Z,932.64
2016-11-01T04:28:26.012Z,932.61
2016-11-01T04:29:36.431Z,932.59
2016-11-01T04:30:46.845Z,932.57
2016-11-01T04:31:57.259Z,932.59
2016-11-01T04:33:07.675Z,932.6
2016-11-01T04:34:18.148Z,932.64
2016-11-01T04:35:28.568Z,932.58
2016-11-01T04:36:38.988Z,932.61
2016-11-01T04:37:49.409Z,932.56
2016-11-01T04:38:59.827Z,932.61
2016-11-01T04:40:10.242Z,932.62
2016-11-01T04:41:21.154Z,932.62
2016-11-01T04:42:31.572Z,932.63
2016-11-01T04:43:42.093Z,932.59
2016-11-01T04:44:52.514Z,932.6
2016-11-01T04:46:03.419Z,932.57
2016-11-01T04:47:13.836Z,932.6
2016-11-01T04:48:24.249Z,932.66
2016-11-01T04:49:34.811Z,932.64
2016-11-01T04:50:45.273Z,932.65
2016-11-01T04:51:55.686Z,932.62
2016-11-01T04:53:06.105Z,932.59
2016-11-01T04:54:16.528Z,932.55
2016-11-01T04:55:27.046Z,932.57
2016-11-01T04:56:37.465Z,932.57
2016-11-01T04:57:47.878Z,932.56
2016-11-01T04:58:58.291Z,932.52
2016-11-01T05:00:08.748Z,932.53
2016-11-01T05:01:19.273Z,932.48
2016-11-01T05:02:29.686Z,932.48
2016-11-01T05:03:40.103Z,932.45
2016-11-01T05:05:05.554Z,932.43
2016-11-01T05:06:16.457Z,932.34
2016-11-01T05:07:26.997Z,932.36
2016-11-01T05:08:51.962Z,932.32
2016-11-01T05:10:02.377Z,932.36
2016-11-01T05:11:12.793Z,932.39
2016-11-01T05:12:23.312Z,932.42
2016-11-01T05:13:33.736Z,932.42
2016-11-01T05:14:44.156Z,932.39
2016-11-01T05:15:54.572Z,932.4
2016-11-01T05:17:05.086Z,932.42
2016-11-01T05:18:15.503Z,932.39
2016-11-01T05:19:25.925Z,932.4
2016-11-01T05:20:36.837Z,932.39
2016-11-01T05:21:47.255Z,932.37
2016-11-01T05:22:58.060Z,932.34
2016-11-01T05:24:08.514Z,932.31
2016-11-01T05:25:18.926Z,932.25
2016-11-01T05:26:29.341Z,932.28
2016-11-01T05:27:39.794Z,932.27
2016-11-01T05:28:50.706Z,932.27
2016-11-01T05:30:01.123Z,932.28
2016-11-01T05:31:11.569Z,932.3
2016-11-01T05:32:21.987Z,932.37
2016-11-01T05:33:32.404Z,932.37
2016-11-01T05:34:42.820Z,932.34
2016-11-01T05:35:53.237Z,932.32
2016-11-01T05:37:03.560Z,932.33
2016-11-01T05:38:28.457Z,932.32
2016-11-01T05:39:38.812Z,932.33
2016-11-01T05:40:49.136Z,932.34
2016-11-01T05:41:59.467Z,932.3
2016-11-01T05:43:09.789Z,932.33
2016-11-01T05:44:20.117Z,932.28
2016-11-01T05:45:30.930Z,932.27
2016-11-01T05:46:41.257Z,932.28
2016-11-01T05:47:51.616Z,932.27
2016-11-01T05:49:01.941Z,932.27
2016-11-01T05:50:12.266Z,932.26
2016-11-01T05:51:22.599Z,932.26
2016-11-01T05:52:32.931Z,932.3
2016-11-01T05:53:43.253Z,932.31
2016-11-01T05:54:53.574Z,932.32
2016-11-01T05:56:03.897Z,932.34
2016-11-01T05:57:14.699Z,932.3
2016-11-01T05:58:25.499Z,932.4
2016-11-01T05:59:35.823Z,932.37
2016-11-01T06:00:46.158Z,932.37
2016-11-01T06:01:56.524Z,932.35
2016-11-01T06:03:06.846Z,932.33
2016-11-01T06:04:17.170Z,932.31
2016-11-01T06:05:27.494Z,932.27
2016-11-01T06:06:37.858Z,932.31
2016-11-01T06:08:02.789Z,932.31
2016-11-01T06:09:13.246Z,932.38
2016-11-01T06:10:23.567Z,932.35
2016-11-01T06:11:33.890Z,932.34
2016-11-01T06:12:44.211Z,932.34
2016-11-01T06:13:54.634Z,932.34
2016-11-01T06:15:04.959Z,932.37
2016-11-01T06:16:15.283Z,932.36
2016-11-01T06:17:25.611Z,932.42
2016-11-01T06:18:35.935Z,932.39
2016-11-01T06:19:46.361Z,932.44
2016-11-01T06:20:57.163Z,932.45
2016-11-01T06:22:07.488Z,932.44
2016-11-01T06:23:17.810Z,932.4
2016-11-01T06:24:28.140Z,932.39
2016-11-01T06:25:38.566Z,932.41
2016-11-01T06:26:48.888Z,932.38
2016-11-01T06:27:59.227Z,932.37
2016-11-01T06:29:09.562Z,932.34
2016-11-01T06:30:20.008Z,932.38
2016-11-01T06:31:30.450Z,932.37
2016-11-01T06:32:40.890Z,932.41
2016-11-01T06:33:51.330Z,932.44
2016-11-01T06:35:16.314Z,932.43
2016-11-01T06:36:26.757Z,932.41
2016-11-01T06:37:37.353Z,932.38
2016-11-01T06:38:47.796Z,932.36
2016-11-01T06:39:58.251Z,932.35
2016-11-01T06:41:08.691Z,932.32
2016-11-01T06:42:19.624Z,932.31
2016-11-01T06:43:30.066Z,932.3
2016-11-01T06:44:40.511Z,932.33
2016-11-01T06:45:50.955Z,932.35
2016-11-01T06:47:01.437Z,932.36
2016-11-01T06:48:11.887Z,932.36
2016-11-01T06:49:22.326Z,932.33
2016-11-01T06:50:33.257Z,932.36
2016-11-01T06:51:43.698Z,932.34
2016-11-01T06:52:54.144Z,932.35
2016-11-01T06:54:04.582Z,932.34
2016-11-01T06:55:15.029Z,932.41
2016-11-01T06:56:25.477Z,932.4
2016-11-01T06:57:35.920Z,932.39
2016-11-01T06:58:46.358Z,932.35
2016-11-01T06:59:57.753Z,932.35
2016-11-01T07:01:08.194Z,932.36
2016-11-01T07:02:18.637Z,932.38
2016-11-01T07:03:29.064Z,932.4
2016-11-01T07:04:39.428Z,932.38
2016-11-01T07:05:49.852Z,932.4
2016-11-01T07:07:00.175Z,932.39
2016-11-01T07:08:10.502Z,932.37
2016-11-01T07:09:20.826Z,932.42
2016-11-01T07:10:31.155Z,932.43
2016-11-01T07:11:41.518Z,932.44
2016-11-01T07:12:51.849Z,932.47
2016-11-01T07:14:02.177Z,932.43
2016-11-01T07:15:12.500Z,932.44
2016-11-01T07:16:22.829Z,932.42
2016-11-01T07:17:33.256Z,932.43
2016-11-01T07:18:43.628Z,932.4
2016-11-01T07:19:53.948Z,932.37
2016-11-01T07:21:04.275Z,932.38
2016-11-01T07:22:14.600Z,932.35
2016-11-01T07:23:25.026Z,932.38
2016-11-01T07:24:35.350Z,932.4
2016-11-01T07:25:45.674Z,932.48
2016-11-01T07:26:55.998Z,932.51
2016-11-01T07:28:06.327Z,932.49
2016-11-01T07:29:16.652Z,932.45
2016-11-01T07:30:26.980Z,932.46
2016-11-01T07:31:51.873Z,932.49
2016-11-01T07:33:02.196Z,932.5
2016-11-01T07:34:12.554Z,932.52
2016-11-01T07:35:22.985Z,932.53
2016-11-01T07:36:33.310Z,932.54
2016-11-01T07:37:43.634Z,932.57
2016-11-01T07:38:53.968Z,932.57
2016-11-01T07:40:04.291Z,932.54
2016-11-01T07:41:14.623Z,932.61
2016-11-01T07:42:39.518Z,932.59
2016-11-01T07:43:49.846Z,932.61
2016-11-01T07:45:00.230Z,932.58
2016-11-01T07:46:10.604Z,932.56
2016-11-01T07:47:20.993Z,932.61
2016-11-01T07:48:31.321Z,932.65
2016-11-01T07:49:41.654Z,932.62
2016-11-01T07:50:52.081Z,932.66
2016-11-01T07:52:02.408Z,932.65
2016-11-01T07:53:12.736Z,932.63
2016-11-01T07:54:23.062Z,932.65
2016-11-01T07:55:33.384Z,932.7
2016-11-01T07:56:43.825Z,932.69
2016-11-01T07:57:54.189Z,932.73
2016-11-01T07:59:04.511Z,932.74
2016-11-01T08:00:14.839Z,932.78
2016-11-01T08:01:25.163Z,932.82
2016-11-01T08:02:35.593Z,932.9
2016-11-01T08:03:45.921Z,933.02
2016-11-01T08:04:56.243Z,933.17
2016-11-01T08:06:06.568Z,933.32
2016-11-01T08:07:16.899Z,933.49
2016-11-01T08:08:27.327Z,933.5
2016-11-01T08:09:37.685Z,933.48
2016-11-01T08:10:48.012Z,933.47
2016-11-01T08:11:58.336Z,933.47
2016-11-01T08:13:08.667Z,933.52
2016-11-01T08:14:19.092Z,933.55
2016-11-01T08:15:29.422Z,933.62
2016-11-01T08:16:39.748Z,933.57
2016-11-01T08:17:50.070Z,933.54
2016-11-01T08:19:14.961Z,933.58
2016-11-01T08:20:25.386Z,933.54
2016-11-01T08:21:35.758Z,933.56
2016-11-01T08:22:46.082Z,933.53
2016-11-01T08:23:57.444Z,933.54
2016-11-01T08:25:07.790Z,933.56
2016-11-01T08:26:32.684Z,933.57
2016-11-01T08:27:43.043Z,933.59
2016-11-01T08:28:53.368Z,933.57
2016-11-01T08:30:03.690Z,933.59
2016-11-01T08:31:14.016Z,933.61
2016-11-01T08:32:24.341Z,933.61
2016-11-01T08:33:34.666Z,933.66
2016-11-01T08:34:44.991Z,933.67
2016-11-01T08:35:55.415Z,933.72
2016-11-01T08:37:05.740Z,933.71
2016-11-01T08:38:16.068Z,933.63
2016-11-01T08:39:26.871Z,933.64
2016-11-01T08:40:37.190Z,933.61
2016-11-01T08:41:47.516Z,933.56
2016-11-01T08:42:57.845Z,933.55
2016-11-01T08:44:08.169Z,933.58
2016-11-01T08:45:18.493Z,933.56
2016-11-01T08:46:28.817Z,933.58
2016-11-01T08:47:39.241Z,933.61
2016-11-01T08:48:49.567Z,933.55
2016-11-01T08:49:59.892Z,933.56
2016-11-01T08:51:10.218Z,933.55
2016-11-01T08:52:20.543Z,933.61
2016-11-01T08:53:30.968Z,933.62
2016-11-01T08:54:41.296Z,933.64
2016-11-01T08:55:51.616Z,933.69
2016-11-01T08:57:01.939Z,933.7
2016-11-01T08:58:12.267Z,933.77
2016-11-01T08:59:22.589Z,933.79
2016-11-01T09:00:33.390Z,933.83
2016-11-01T09:01:43.747Z,933.85
2016-11-01T09:02:54.108Z,933.84
2016-11-01T09:04:04.432Z,933.85
2016-11-01T09:05:14.759Z,933.83
2016-11-01T09:06:25.088Z,933.79
2016-11-01T09:07:35.451Z,933.78
2016-11-01T09:08:45.772Z,933.8
2016-11-01T09:09:56.099Z,933.82
2016-11-01T09:11:06.520Z,933.81
2016-11-01T09:12:16.845Z,933.81
2016-11-01T09:14:52.059Z,933.83
2016-11-01T09:16:02.392Z,933.85
2016-11-01T09:17:12.815Z,933.88
2016-11-01T09:18:23.139Z,933.84
2016-11-01T09:19:33.477Z,933.87
2016-11-01T09:20:43.806Z,933.92
2016-11-01T09:22:08.798Z,933.97
2016-11-01T09:23:19.131Z,933.98
2016-11-01T09:24:29.935Z,934
2016-11-01T09:25:54.827Z,934
2016-11-01T09:27:05.150Z,933.98
2016-11-01T09:28:30.143Z,933.95
2016-11-01T09:29:40.466Z,933.94
2016-11-01T09:30:50.793Z,933.95
2016-11-01T09:32:01.116Z,933.89
2016-11-01T09:33:11.541Z,933.87
2016-11-01T09:34:21.863Z,933.88
2016-11-01T09:35:32.185Z,933.89
2016-11-01T09:36:42.511Z,933.92
2016-11-01T09:37:52.935Z,933.86
2016-11-01T09:39:03.260Z,933.84
2016-11-01T09:40:13.582Z,933.83
2016-11-01T09:41:23.906Z,933.8
2016-11-01T09:42:34.711Z,933.8
2016-11-01T09:43:45.136Z,933.81
2016-11-01T09:44:55.459Z,933.79
2016-11-01T09:46:06.309Z,933.84
2016-11-01T09:47:16.641Z,933.85
2016-11-01T09:48:26.968Z,933.83
2016-11-01T09:49:37.294Z,933.92
2016-11-01T09:50:47.620Z,933.91
2016-11-01T09:51:57.945Z,933.93
2016-11-01T09:53:08.749Z,933.93
2016-11-01T09:54:19.075Z,933.97
2016-11-01T09:55:29.497Z,934
2016-11-01T09:56:39.819Z,934.01
2016-11-01T09:57:50.145Z,934.01
2016-11-01T09:59:00.473Z,934.01
2016-11-01T10:00:25.365Z,933.97
2016-11-01T10:01:35.829Z,933.96
2016-11-01T10:02:46.151Z,933.94
2016-11-01T10:03:56.481Z,933.98
2016-11-01T10:05:06.807Z,934
2016-11-01T10:06:17.135Z,933.98
2016-11-01T10:07:27.459Z,933.95
2016-11-01T10:08:37.787Z,933.98
2016-11-01T10:09:48.116Z,933.96
2016-11-01T10:10:58.467Z,933.96
2016-11-01T10:12:08.791Z,933.99
2016-11-01T10:13:19.121Z,934
2016-11-01T10:14:29.450Z,934.02
2016-11-01T10:15:39.776Z,934.06
2016-11-01T10:16:50.102Z,934.09
2016-11-01T10:18:00.558Z,934.09
2016-11-01T10:19:10.892Z,934.11
2016-11-01T10:20:21.218Z,934.09
2016-11-01T10:21:31.543Z,934.1
2016-11-01T10:22:42.344Z,934.12
2016-11-01T10:23:52.701Z,934.15
2016-11-01T10:25:03.040Z,934.14
2016-11-01T10:26:13.482Z,934.12
2016-11-01T10:27:23.929Z,934.08
2016-11-01T10:28:34.379Z,934.1
2016-11-01T10:29:45.314Z,934.1
2016-11-01T10:30:55.755Z,934.09
2016-11-01T10:32:06.196Z,934.05
2016-11-01T10:33:16.640Z,934
2016-11-01T10:34:27.080Z,933.97
2016-11-01T10:35:37.623Z,934
2016-11-01T10:36:48.074Z,933.98
2016-11-01T10:37:58.516Z,933.99
2016-11-01T10:39:08.963Z,934.02
2016-11-01T10:40:19.405Z,934.09
2016-11-01T10:41:29.958Z,934.11
2016-11-01T10:42:40.402Z,934.08
2016-11-01T10:43:50.880Z,934.12
2016-11-01T10:45:01.321Z,934.1
2016-11-01T10:46:11.767Z,934.09
2016-11-01T10:47:22.208Z,934.07
2016-11-01T10:48:32.650Z,934.08
2016-11-01T10:49:43.093Z,934.08
2016-11-01T10:50:53.550Z,934.12
2016-11-01T10:52:04.081Z,934.1
2016-11-01T10:53:14.624Z,934.07
2016-11-01T10:54:25.160Z,934.09
2016-11-01T10:55:36.230Z,934.08
2016-11-01T10:56:46.783Z,934.06
2016-11-01T10:57:57.816Z,934.1
2016-11-01T10:59:08.336Z,934.12
2016-11-01T11:00:19.236Z,934.13
2016-11-01T11:01:29.656Z,934.16
2016-11-01T11:02:40.072Z,934.2
2016-11-01T11:05:15.458Z,934.18
2016-11-01T11:06:25.910Z,934.22
2016-11-01T11:07:36.325Z,934.21
2016-11-01T11:08:46.738Z,934.23
2016-11-01T11:10:26.252Z,934.24
2016-11-01T11:11:36.664Z,934.27
2016-11-01T11:12:47.087Z,934.26
2016-11-01T11:13:57.542Z,934.29
2016-11-01T11:15:22.712Z,934.29
2016-11-01T11:16:33.127Z,934.29
2016-11-01T11:17:43.536Z,934.29
2016-11-01T11:18:54.299Z,934.3
2016-11-01T11:20:04.817Z,934.31
2016-11-01T11:21:15.230Z,934.3
2016-11-01T11:22:25.645Z,934.35
2016-11-01T11:23:36.262Z,934.32
2016-11-01T11:24:46.685Z,934.3
2016-11-01T11:25:57.700Z,934.31
2016-11-01T11:27:08.111Z,934.33
2016-11-01T11:28:18.526Z,934.32
2016-11-01T11:29:28.941Z,934.38
2016-11-01T11:30:39.365Z,934.36
2016-11-01T11:31:49.879Z,934.4
2016-11-01T11:33:00.303Z,934.32
2016-11-01T11:34:10.842Z,934.29
2016-11-01T11:35:21.378Z,934.28
2016-11-01T11:36:31.894Z,934.27
2016-11-01T11:37:42.376Z,934.29
2016-11-01T11:38:52.827Z,934.29
2016-11-01T11:40:03.269Z,934.32
2016-11-01T11:41:13.719Z,934.31
2016-11-01T11:42:24.170Z,934.38
2016-11-01T11:43:49.171Z,934.38
2016-11-01T11:44:59.616Z,934.38
2016-11-01T11:46:10.058Z,934.36
2016-11-01T11:47:20.503Z,934.4
2016-11-01T11:48:30.951Z,934.37
2016-11-01T11:49:41.392Z,934.35
2016-11-01T11:50:51.831Z,934.34
2016-11-01T11:52:02.272Z,934.31
2016-11-01T11:53:12.729Z,934.28
2016-11-01T11:54:23.173Z,934.3
2016-11-01T11:55:33.719Z,934.29
2016-11-01T11:56:44.166Z,934.31
2016-11-01T11:57:54.610Z,934.34
2016-11-01T11:59:05.544Z,934.33
2016-11-01T12:00:15.999Z,934.31
2016-11-01T12:01:41.037Z,934.29
2016-11-01T12:03:06.023Z,934.3
2016-11-01T12:04:16.506Z,934.28
2016-11-01T12:05:26.947Z,934.3
2016-11-01T12:06:37.393Z,934.29
2016-11-01T12:07:47.842Z,934.29
2016-11-01T12:08:58.283Z,934.36
2016-11-01T12:10:23.280Z,934.35
2016-11-01T12:11:33.765Z,934.39
2016-11-01T12:12:44.216Z,934.37
2016-11-01T12:13:54.659Z,934.38
2016-11-01T12:15:05.102Z,934.3
2016-11-01T12:16:15.546Z,934.26
2016-11-01T12:17:25.990Z,934.3
2016-11-01T12:18:36.438Z,934.32
2016-11-01T12:19:46.881Z,934.3
2016-11-01T12:20:57.342Z,934.3
2016-11-01T12:22:07.888Z,934.32
2016-11-01T12:23:18.426Z,934.21
2016-11-01T12:24:28.961Z,934.21
2016-11-01T12:25:54.028Z,934.27
2016-11-01T12:27:04.567Z,934.28
2016-11-01T12:28:15.113Z,934.27
2016-11-01T12:29:25.648Z,934.3
2016-11-01T12:30:36.186Z,934.23
2016-11-01T12:31:47.242Z,934.23
2016-11-01T12:32:57.782Z,934.23
2016-11-01T12:34:09.333Z,934.13
2016-11-01T12:35:19.871Z,934.18
2016-11-01T12:36:30.629Z,934.18
2016-11-01T12:37:41.172Z,934.13
2016-11-01T12:38:51.711Z,934.11
2016-11-01T12:40:02.253Z,934.11
2016-11-01T12:41:12.827Z,934.18
2016-11-01T12:42:23.396Z,934.19
2016-11-01T12:43:34.336Z,934.16
2016-11-01T12:44:44.877Z,934.16
2016-11-01T12:45:55.518Z,934.17
2016-11-01T12:47:06.555Z,934.17
2016-11-01T12:48:17.095Z,934.19
2016-11-01T12:49:27.634Z,934.16
2016-11-01T12:50:38.182Z,934.14
2016-11-01T12:51:49.328Z,934.13
2016-11-01T12:53:00.422Z,934.11
2016-11-01T12:54:10.971Z,934.06
2016-11-01T12:55:21.512Z,934.11
2016-11-01T12:56:46.574Z,934.03
2016-11-01T12:57:57.211Z,934.06
2016-11-01T12:59:07.752Z,934.06
2016-11-01T13:00:18.302Z,934.05
2016-11-01T13:01:28.875Z,934.04
2016-11-01T13:02:39.431Z,933.97
2016-11-01T13:03:50.003Z,934.02
2016-11-01T13:05:00.551Z,933.96
2016-11-01T13:06:11.138Z,934.02
2016-11-01T13:07:21.680Z,933.98
2016-11-01T13:08:47.753Z,933.96
2016-11-01T13:09:58.799Z,933.91
2016-11-01T13:11:09.575Z,933.85
2016-11-01T13:12:20.622Z,933.88
2016-11-01T13:13:31.769Z,933.85
2016-11-01T13:14:42.310Z,933.87
2016-11-01T13:15:53.037Z,933.8
2016-11-01T13:17:03.575Z,933.82
2016-11-01T13:18:14.118Z,933.78
2016-11-01T13:19:39.286Z,933.8
2016-11-01T13:20:49.824Z,933.77
2016-11-01T13:22:00.864Z,933.76
2016-11-01T13:23:11.441Z,933.76
2016-11-01T13:24:22.169Z,933.76
2016-11-01T13:25:32.720Z,933.76
2016-11-01T13:26:57.790Z,933.69
2016-11-01T13:28:08.332Z,933.72
2016-11-01T13:29:18.873Z,933.65
2016-11-01T13:30:29.444Z,933.74
2016-11-01T13:31:40.081Z,933.63
2016-11-01T13:33:05.155Z,933.64
2016-11-01T13:35:40.895Z,933.56
2016-11-01T13:36:51.436Z,933.55
2016-11-01T13:38:01.974Z,933.48
2016-11-01T13:39:12.512Z,933.42
2016-11-01T13:40:23.052Z,933.38
2016-11-01T13:41:33.739Z,933.32
2016-11-01T13:42:44.778Z,933.34
2016-11-01T13:44:09.840Z,933.36
2016-11-01T13:45:20.876Z,933.37
2016-11-01T13:46:31.416Z,933.37
2016-11-01T13:47:42.861Z,933.31
2016-11-01T13:48:53.399Z,933.26
2016-11-01T13:50:03.819Z,933.25
2016-11-01T13:51:14.241Z,933.25
2016-11-01T13:52:24.674Z,933.19
2016-11-01T13:53:35.092Z,933.29
2016-11-01T13:54:45.516Z,933.28
2016-11-01T13:55:56.417Z,933.3
2016-11-01T13:57:06.846Z,933.26
2016-11-01T13:58:17.267Z,933.27
2016-11-01T14:00:52.664Z,933.16
2016-11-01T14:02:03.088Z,933.09
2016-11-01T14:03:13.509Z,933.14
2016-11-01T14:04:24.122Z,933.1
2016-11-01T14:05:34.542Z,933.1
2016-11-01T14:06:44.961Z,933.08
2016-11-01T14:08:09.929Z,933.07
2016-11-01T14:09:20.348Z,933.02
2016-11-01T14:10:30.774Z,933.02
2016-11-01T14:11:41.200Z,932.97
2016-11-01T14:12:51.621Z,932.95
2016-11-01T14:14:16.590Z,932.94
2016-11-01T14:15:27.538Z,932.88
2016-11-01T14:16:38.483Z,932.86
2016-11-01T14:17:49.445Z,932.89
2016-11-01T14:19:00.363Z,932.96
2016-11-01T14:20:11.791Z,932.92
2016-11-01T14:21:22.232Z,932.85
2016-11-01T14:22:32.670Z,932.83
2016-11-01T14:23:43.217Z,932.83
2016-11-01T14:24:53.762Z,932.8
2016-11-01T14:26:04.950Z,932.84
2016-11-01T14:27:15.495Z,932.79
2016-11-01T14:28:26.041Z,932.82
2016-11-01T14:29:36.607Z,932.82
2016-11-01T14:30:47.154Z,932.85
2016-11-01T14:32:12.716Z,932.78
2016-11-01T14:33:23.444Z,932.78
2016-11-01T14:34:33.986Z,932.82
2016-11-01T14:35:59.831Z,932.68
2016-11-01T14:37:11.036Z,932.7
2016-11-01T14:38:21.587Z,932.75
2016-11-01T14:39:32.340Z,932.75
2016-11-01T14:40:43.948Z,932.65
2016-11-01T14:41:54.491Z,932.63
2016-11-01T14:43:05.752Z,932.63
2016-11-01T14:44:17.246Z,932.64
2016-11-01T14:45:27.787Z,932.72
2016-11-01T14:46:38.827Z,932.65
2016-11-01T14:47:49.929Z,932.62
2016-11-01T14:49:00.475Z,932.65
2016-11-01T14:50:11.019Z,932.65
2016-11-01T14:51:22.361Z,932.6
2016-11-01T14:52:32.911Z,932.57
2016-11-01T14:53:43.955Z,932.52
2016-11-01T14:54:54.603Z,932.64
2016-11-01T14:56:05.150Z,932.66
2016-11-01T14:57:15.698Z,932.64
2016-11-01T14:58:26.247Z,932.65
2016-11-01T14:59:37.306Z,932.65
2016-11-01T15:00:47.920Z,932.64
2016-11-01T15:01:58.471Z,932.66
2016-11-01T15:03:24.053Z,932.47